^^
Station Historical Data
Daily Summary for May 31, 2017 Units:  Metric    English   Both
« Previous Day
Next Day »
Daily Weekly Monthly Yearly Custom
  High: Low: Average:
Temperature: 27.6 °C 12.1 °C 19.7 °C
Dew Point: 5.5 °C -1.1 °C 2.4 °C
Humidity: 54% 19% 34%
Wind Speed: 20.9km/h 0km/h 4km/h
Wind Gust: 24.1km/h - -
Wind- - SSE
Pressure: 1020.5 hPa 1017.2 hPa -
Precipitation: 0 mm    
Historical Graphs
 
 
Tabular Data for May 31, 2017
Time Temperature Dew Point Pressure Wind Wind Speed Wind Gust Humidity Rainfall Rate (Hourly) solar Conditions
00:47 17.1 °C 2.3 °C 1019.5 hPa NE 11.1 km/h 11.3 km/h 37% 0 mm 0.0 W/m2
00:57 17.1 °C 2.3 °C 1019.5 hPa NE 6.4 km/h 14.5 km/h 37% 0 mm 0.0 W/m2
01:02 17 °C 2.2 °C 1019.9 hPa NE 6.4 km/h 12.9 km/h 37% 0 mm 0.0 W/m2
01:07 16.9 °C 2.1 °C 1019.9 hPa NE 1.4 km/h 11.3 km/h 37% 0 mm 0.0 W/m2
01:17 16.9 °C 2.1 °C 1019.9 hPa NE 3.2 km/h 9.7 km/h 37% 0 mm 0.0 W/m2
01:22 16.9 °C 2.5 °C 1019.9 hPa Calm   9.7 km/h 38% 0 mm 0.0 W/m2
01:27 16.8 °C 2.4 °C 1019.9 hPa Calm   9.7 km/h 38% 0 mm 0.0 W/m2
01:32 16.7 °C 2.3 °C 1019.9 hPa Calm   6.4 km/h 38% 0 mm 0.0 W/m2
01:42 16.3 °C 2.3 °C 1019.9 hPa Calm   8 km/h 39% 0 mm 0.0 W/m2
01:53 16.2 °C 2.2 °C 1019.9 hPa NE 3.2 km/h 6.4 km/h 39% 0 mm 0.0 W/m2
01:58 16.2 °C 2.6 °C 1019.5 hPa Calm   11.3 km/h 40% 0 mm 0.0 W/m2
02:03 16.2 °C 2.6 °C 1019.5 hPa NE 3.2 km/h 3.2 km/h 40% 0 mm 0.0 W/m2
02:13 16 °C 2.4 °C 1019.5 hPa Calm   1.6 km/h 40% 0 mm 0.0 W/m2
02:19 15.8 °C 2.6 °C 1019.5 hPa Calm   1.6 km/h 41% 0 mm 0.0 W/m2
02:24 15.5 °C 2.3 °C 1019.5 hPa Calm   1.6 km/h 41% 0 mm 0.0 W/m2
02:29 15.5 °C 2.6 °C 1019.5 hPa NE 9.7 km/h 11.3 km/h 42% 0 mm 0.0 W/m2
02:34 15.9 °C 3 °C 1019.5 hPa Calm   9.7 km/h 42% 0 mm 0.0 W/m2
02:44 16 °C 2.7 °C 1019.5 hPa Calm   3.2 km/h 41% 0 mm 0.0 W/m2
02:49 15.7 °C 2.5 °C 1019.5 hPa Calm   9.7 km/h 41% 0 mm 0.0 W/m2
02:55 15.4 °C 2.5 °C 1019.5 hPa Calm     42% 0 mm 0.0 W/m2
03:00 15.1 °C 2.3 °C 1019.5 hPa Calm     42% 0 mm 0.0 W/m2
03:10 14.7 °C 2.2 °C 1019.9 hPa Calm     43% 0 mm 0.0 W/m2
03:15 14.5 °C 2.4 °C 1019.9 hPa Calm     44% 0 mm 0.0 W/m2
03:20 14.2 °C 2.1 °C 1019.5 hPa Calm     44% 0 mm 0.0 W/m2
03:25 13.7 °C 2 °C 1019.5 hPa Calm     45% 0 mm 0.0 W/m2
03:30 13.3 °C 1.9 °C 1019.5 hPa Calm     46% 0 mm 0.0 W/m2
03:36 13.1 °C 2 °C 1019.5 hPa NE 1.4 km/h 1.6 km/h 47% 0 mm 0.0 W/m2
03:41 13 °C 2.5 °C 1019.5 hPa NE 6.4 km/h 12.9 km/h 49% 0 mm 0.0 W/m2
03:51 13.3 °C 2.5 °C 1019.5 hPa Calm   11.3 km/h 48% 0 mm 0.0 W/m2
03:56 13.4 °C 2.6 °C 1019.5 hPa NE 13 km/h 13 km/h 48% 0 mm 0.0 W/m2
04:01 13.4 °C 2.3 °C 1019.5 hPa NE 6.4 km/h 12.9 km/h 47% 0 mm 0.0 W/m2
04:06 13.3 °C 2.5 °C 1019.5 hPa NE 6.4 km/h 12.9 km/h 48% 0 mm 0.0 W/m2
04:16 13 °C 2.5 °C 1019.5 hPa NE 3.2 km/h 12.9 km/h 49% 0 mm 0.0 W/m2
04:21 12.8 °C 2.3 °C 1019.5 hPa NE 3.2 km/h 11.3 km/h 49% 0 mm 0.0 W/m2
04:26 12.7 °C 2.3 °C 1019.5 hPa Calm   14.5 km/h 49% 0 mm 0.0 W/m2
04:31 12.6 °C 2.4 °C 1019.5 hPa Calm   12.9 km/h 50% 0 mm 0.0 W/m2
04:36 12.6 °C 2.7 °C 1019.5 hPa NE 14.3 km/h 14.5 km/h 51% 0 mm 0.0 W/m2
04:46 12.7 °C 2.5 °C 1019.5 hPa NE 7.9 km/h 12.9 km/h 50% 0 mm 0.0 W/m2
04:51 12.6 °C 2.7 °C 1019.5 hPa NE 11.1 km/h 14.5 km/h 51% 0 mm 0.0 W/m2
04:57 12.4 °C 2.5 °C 1019.5 hPa NE 9.7 km/h 14.5 km/h 51% 0 mm 0.0 W/m2
05:06 12.3 °C 2.7 °C 1019.5 hPa NE 6.4 km/h 12.9 km/h 52% 0 mm 0.0 W/m2
05:11 12.4 °C 2.8 °C 1019.5 hPa NE 7.9 km/h 11.3 km/h 52% 0 mm 0.0 W/m2
05:17 12.4 °C 2.8 °C 1019.5 hPa NE 6.4 km/h 11.3 km/h 52% 0 mm 0.0 W/m2
05:22 12.5 °C 2.9 °C 1019.5 hPa Calm     52% 0 mm 0.0 W/m2
05:32 12.3 °C 2.7 °C 1019.5 hPa Calm     52% 0 mm 0.0 W/m2
05:38 12.2 °C 2.9 °C 1019.5 hPa Calm   3.2 km/h 53% 0 mm 0.0 W/m2
05:43 12.2 °C 2.9 °C 1019.5 hPa Calm     53% 0 mm 0.0 W/m2
05:48 12.1 °C 3.1 °C 1019.5 hPa Calm     54% 0 mm 0.0 W/m2
05:53 12.2 °C 3.2 °C 1019.5 hPa NE 7.9 km/h 11.3 km/h 54% 0 mm 0.0 W/m2
05:58 12.6 °C 3.3 °C 1019.5 hPa Calm   14.5 km/h 53% 0 mm 0.0 W/m2
06:04 12.9 °C 3.3 °C 1019.5 hPa NE 11.1 km/h 16.1 km/h 52% 0 mm 0.0 W/m2
06:10 13.2 °C 3.6 °C 1019.5 hPa NE 11.1 km/h 17.7 km/h 52% 0 mm 0.0 W/m2
06:23 13.6 °C 3.7 °C 1019.5 hPa Calm   16.1 km/h 51% 0 mm 0.0 W/m2
06:38 13.6 °C 3.7 °C 1019.9 hPa NE 4.7 km/h 11.3 km/h 51% 0 mm 5.0 W/m2
06:52 13.6 °C 3.7 °C 1019.9 hPa Calm   9.7 km/h 51% 0 mm 12.0 W/m2
06:59 13.4 °C 3.7 °C 1019.9 hPa NE 6.4 km/h 9.7 km/h 52% 0 mm 18.0 W/m2
07:11 13.7 °C 3.7 °C 1019.9 hPa Calm   8 km/h 51% 0 mm 21.0 W/m2
07:38 15.3 °C 4.4 °C 1020.2 hPa NE 3.2 km/h 9.7 km/h 48% 0 mm 125.0 W/m2
07:54 16.2 °C 4.6 °C 1020.2 hPa NE 3.2 km/h 11.3 km/h 46% 0 mm 181.0 W/m2
08:09 17.2 °C 4.8 °C 1020.5 hPa NE 11.1 km/h 14.5 km/h 44% 0 mm 234.0 W/m2
08:24 18.2 °C 5.1 °C 1020.5 hPa Calm     42% 0 mm 274.0 W/m2
08:55 20.4 °C 5.2 °C 1020.5 hPa NE 6.4 km/h 14.5 km/h 37% 0 mm 357.0 W/m2
09:09 21 °C 5.4 °C 1020.5 hPa NE 7.9 km/h 9.7 km/h 36% 0 mm 394.0 W/m2
09:19 21.4 °C 5.3 °C 1020.5 hPa NE 1.4 km/h 12.9 km/h 35% 0 mm 418.0 W/m2
09:29 21.9 °C 5.3 °C 1020.5 hPa NE 7.9 km/h 12.9 km/h 34% 0 mm 438.0 W/m2
09:39 22.2 °C 5.2 °C 1020.5 hPa NE 11.1 km/h 16.1 km/h 33% 0 mm 459.0 W/m2
09:47 22.7 °C 5.2 °C 1020.5 hPa NE 13 km/h 16.1 km/h 32% 0 mm 478.0 W/m2
09:55 22.6 °C 5.1 °C 1020.5 hPa NNE 7.9 km/h 17.7 km/h 32% 0 mm 497.0 W/m2
10:01 22.8 °C 5.2 °C 1020.5 hPa Calm   16.1 km/h 32% 0 mm 508.0 W/m2
10:10 23.1 °C 5 °C 1020.5 hPa NNE 11.1 km/h 14.5 km/h 31% 0 mm 524.0 W/m2
10:15 23 °C 5 °C 1020.5 hPa Calm   17.7 km/h 31% 0 mm 534.0 W/m2
10:21 22.9 °C 5.3 °C 1020.5 hPa North 14.3 km/h 14.5 km/h 32% 0 mm 540.0 W/m2
10:30 23.1 °C 5 °C 1020.5 hPa North 16.3 km/h 19.3 km/h 31% 0 mm 552.0 W/m2
10:35 22.8 °C 5.2 °C 1020.5 hPa North 7.9 km/h 16.1 km/h 32% 0 mm 557.0 W/m2
10:45 22.9 °C 4.9 °C 1020.5 hPa North 6.4 km/h 16.1 km/h 31% 0 mm 566.0 W/m2
10:52 23.1 °C 5 °C 1020.5 hPa North 11.1 km/h 16.1 km/h 31% 0 mm 573.0 W/m2
10:57 23.3 °C 5.2 °C 1020.2 hPa Calm   14.5 km/h 31% 0 mm 577.0 W/m2
11:02 23.3 °C 5.2 °C 1020.2 hPa North 13 km/h 16.1 km/h 31% 0 mm 580.0 W/m2
11:11 23.7 °C 5.1 °C 1019.9 hPa North 13 km/h 22.5 km/h 30% 0 mm 587.0 W/m2
11:21 23.7 °C 5.1 °C 1019.5 hPa North 20.9 km/h 24.1 km/h 30% 0 mm 591.0 W/m2
11:31 23.8 °C 5.2 °C 1019.5 hPa North 16.3 km/h 19.3 km/h 30% 0 mm 594.0 W/m2
11:36 24.1 °C 5.4 °C 1019.5 hPa North 11.1 km/h 19.3 km/h 30% 0 mm 598.0 W/m2
11:45 24.6 °C 5.4 °C 1019.5 hPa North 7.9 km/h 22.5 km/h 29% 0 mm 599.0 W/m2
11:50 24.6 °C 5.4 °C 1019.5 hPa North 6.4 km/h 14.5 km/h 29% 0 mm 599.0 W/m2
11:56 25 °C 5.2 °C 1019.2 hPa Calm   14.5 km/h 28% 0 mm 598.0 W/m2
12:06 25.3 °C 5.5 °C 1019.2 hPa North 13 km/h 17.7 km/h 28% 0 mm 596.0 W/m2
12:12 25.2 °C 5.4 °C 1019.2 hPa North 13 km/h 17.7 km/h 28% 0 mm 592.0 W/m2
12:26 25.8 °C 5.4 °C 1018.8 hPa North 13 km/h 17.7 km/h 27% 0 mm 585.0 W/m2
12:36 25.9 °C 5.5 °C 1018.5 hPa North 7.9 km/h 19.3 km/h 27% 0 mm 578.0 W/m2
12:46 26.1 °C 5.1 °C 1018.5 hPa NNW 9.7 km/h 14.5 km/h 26% 0 mm 568.0 W/m2
12:51 26.3 °C 4.7 °C 1018.5 hPa NNW 14.3 km/h 14.5 km/h 25% 0 mm 564.0 W/m2
13:01 26.2 °C 4.6 °C 1018.2 hPa NNW 1.4 km/h 17.7 km/h 25% 0 mm 552.0 W/m2
13:06 26.3 °C 4.1 °C 1018.2 hPa NNW 7.9 km/h 19.3 km/h 24% 0 mm 547.0 W/m2
13:12 26.3 °C 4.7 °C 1018.2 hPa NNW 13 km/h 13 km/h 25% 0 mm 538.0 W/m2
13:17 26.4 °C 4.8 °C 1018.2 hPa NNW 13 km/h 13 km/h 25% 0 mm 533.0 W/m2
13:26 26.5 °C 4.3 °C 1018.2 hPa NNW 14.3 km/h 20.9 km/h 24% 0 mm 517.0 W/m2
13:31 26.7 °C 4.5 °C 1017.8 hPa NNW 13 km/h 14.5 km/h 24% 0 mm 510.0 W/m2
13:37 26.6 °C 4.4 °C 1017.8 hPa NNW 3.2 km/h 12.9 km/h 24% 0 mm 499.0 W/m2
13:48 26.9 °C 4.6 °C 1017.8 hPa NNW 6.4 km/h 14.5 km/h 24% 0 mm 480.0 W/m2
13:53 26.8 °C 4.5 °C 1017.8 hPa NNW 7.9 km/h 14.5 km/h 24% 0 mm 471.0 W/m2
14:02 26.8 °C 3.9 °C 1017.8 hPa NNW 3.2 km/h 17.7 km/h 23% 0 mm 452.0 W/m2
14:08 26.9 °C 4 °C 1017.8 hPa NNW 9.7 km/h 14.5 km/h 23% 0 mm 439.0 W/m2
14:13 26.8 °C 4.5 °C 1017.5 hPa NNW 14.3 km/h 14.5 km/h 24% 0 mm 429.0 W/m2
14:23 27.2 °C 3.6 °C 1017.5 hPa NNW 9.7 km/h 14.5 km/h 22% 0 mm 408.0 W/m2
14:32 27.4 °C 3.8 °C 1017.2 hPa NNW 3.2 km/h 12.9 km/h 22% 0 mm 381.0 W/m2
14:37 27.4 °C 3.8 °C 1017.2 hPa Calm   14.5 km/h 22% 0 mm 371.0 W/m2
14:47 27.4 °C 3.8 °C 1017.2 hPa NNW 1.4 km/h 3.2 km/h 22% 0 mm 345.0 W/m2
14:52 27.4 °C 2.5 °C 1017.2 hPa NNW 14.3 km/h 17.7 km/h 20% 0 mm 330.0 W/m2
14:57 27.4 °C 3.1 °C 1017.2 hPa NNW 9.7 km/h 9.7 km/h 21% 0 mm 316.0 W/m2
15:02 27.4 °C 3.8 °C 1017.2 hPa NNW 6.4 km/h 12.9 km/h 22% 0 mm 304.0 W/m2
15:08 27.5 °C 3.9 °C 1017.2 hPa Calm   12.9 km/h 22% 0 mm 292.0 W/m2
15:13 27.6 °C 4 °C 1017.2 hPa NNW 1.4 km/h 9.7 km/h 22% 0 mm 276.0 W/m2
15:48 27.6 °C 3.3 °C 1017.2 hPa NNW 1.4 km/h 8 km/h 21% 0 mm 183.0 W/m2
16:04 27.4 °C 2.5 °C 1017.2 hPa NNW 1.4 km/h 8 km/h 20% 0 mm 128.0 W/m2
16:17 27.4 °C 2.5 °C 1017.2 hPa NNW 6.4 km/h 6.4 km/h 20% 0 mm 81.0 W/m2
16:25 27.3 °C 1.7 °C 1017.2 hPa Calm     19% 0 mm 53.0 W/m2
16:34 26.9 °C 1.3 °C 1017.5 hPa Calm     19% 0 mm 30.0 W/m2
16:49 26.3 °C 0.8 °C 1017.5 hPa Calm     19% 0 mm 11.0 W/m2
16:59 25.7 °C 0.3 °C 1017.5 hPa Calm     19% 0 mm 5.0 W/m2
17:04 25.4 °C 0.8 °C 1017.8 hPa Calm     20% 0 mm 0.0 W/m2
17:09 25.1 °C 0.6 °C 1017.8 hPa Calm     20% 0 mm 0.0 W/m2
17:15 24.8 °C 0.3 °C 1017.8 hPa Calm     20% 0 mm 0.0 W/m2
17:20 24.6 °C 0.1 °C 1017.8 hPa Calm     20% 0 mm 0.0 W/m2
17:26 24.3 °C 0.6 °C 1017.8 hPa Calm     21% 0 mm 0.0 W/m2
17:35 23.8 °C 0.2 °C 1017.8 hPa Calm     21% 0 mm 0.0 W/m2
17:41 23.4 °C -0.2 °C 1017.8 hPa Calm     21% 0 mm 0.0 W/m2
17:53 22.3 °C 0.2 °C 1017.8 hPa Calm     23% 0 mm 0.0 W/m2
18:11 21.2 °C -0.2 °C 1018.2 hPa Calm     24% 0 mm 0.0 W/m2
18:54 19.6 °C 0.1 °C 1018.2 hPa Calm     27% 0 mm 0.0 W/m2
19:09 19.7 °C 0.2 °C 1018.5 hPa Calm     27% 0 mm 0.0 W/m2
19:24 19.6 °C -0.4 °C 1018.5 hPa Calm     26% 0 mm 0.0 W/m2
19:35 18.8 °C -0.6 °C 1018.5 hPa Calm     27% 0 mm 0.0 W/m2
19:50 18.7 °C -0.7 °C 1018.5 hPa Calm     27% 0 mm 0.0 W/m2
20:08 17.6 °C -0.7 °C 1018.8 hPa Calm     29% 0 mm 0.0 W/m2
20:38 17.8 °C -0.5 °C 1018.8 hPa Calm     29% 0 mm 0.0 W/m2
20:47 18.1 °C -0.2 °C 1018.8 hPa Calm     29% 0 mm 0.0 W/m2
20:52 17.9 °C -0.4 °C 1018.8 hPa Calm     29% 0 mm 0.0 W/m2
20:57 17.6 °C -0.7 °C 1018.8 hPa Calm     29% 0 mm 0.0 W/m2
21:02 17.3 °C -0.9 °C 1018.8 hPa Calm     29% 0 mm 0.0 W/m2
21:07 17.2 °C -1 °C 1018.8 hPa Calm     29% 0 mm 0.0 W/m2
21:13 17.1 °C -0.6 °C 1018.8 hPa Calm     30% 0 mm 0.0 W/m2
21:23 17.9 °C -0.4 °C 1018.8 hPa Calm     29% 0 mm 0.0 W/m2
21:33 18.9 °C 0 °C 1018.8 hPa Calm     28% 0 mm 0.0 W/m2
21:39 18.8 °C -0.1 °C 1018.8 hPa Calm     28% 0 mm 0.0 W/m2
21:44 18.8 °C -0.1 °C 1018.8 hPa Calm   9.7 km/h 28% 0 mm 0.0 W/m2
21:49 18.9 °C 0 °C 1018.8 hPa NNW 1.4 km/h 12.9 km/h 28% 0 mm 0.0 W/m2
21:54 19.3 °C -0.2 °C 1018.8 hPa Calm   11.3 km/h 27% 0 mm 0.0 W/m2
21:59 19.6 °C -0.4 °C 1018.8 hPa Calm   3.2 km/h 26% 0 mm 0.0 W/m2
22:09 19.8 °C -0.3 °C 1018.8 hPa Calm     26% 0 mm 0.0 W/m2
22:19 19.7 °C -0.3 °C 1018.5 hPa Calm     26% 0 mm 0.0 W/m2
22:25 19.8 °C -0.3 °C 1018.5 hPa Calm   3.2 km/h 26% 0 mm 0.0 W/m2
22:30 19.8 °C -0.3 °C 1018.5 hPa Calm     26% 0 mm 0.0 W/m2
22:35 19.6 °C -0.4 °C 1018.5 hPa Calm     26% 0 mm 0.0 W/m2
22:40 19.6 °C -0.4 °C 1018.5 hPa Calm   3.2 km/h 26% 0 mm 0.0 W/m2
22:45 19.5 °C -0.5 °C 1018.5 hPa Calm   11.3 km/h 26% 0 mm 0.0 W/m2
22:51 19.3 °C -0.7 °C 1018.5 hPa Calm     26% 0 mm 0.0 W/m2
22:56 19.2 °C -0.8 °C 1018.5 hPa Calm     26% 0 mm 0.0 W/m2
23:01 19.1 °C -0.9 °C 1018.5 hPa Calm     26% 0 mm 0.0 W/m2
23:11 19 °C -0.4 °C 1018.5 hPa Calm     27% 0 mm 0.0 W/m2
23:16 18.9 °C -0.5 °C 1018.5 hPa Calm     27% 0 mm 0.0 W/m2
23:21 19 °C -0.4 °C 1018.5 hPa Calm   1.6 km/h 27% 0 mm 0.0 W/m2
23:26 19.1 °C -0.9 °C 1018.5 hPa Calm   1.6 km/h 26% 0 mm 0.0 W/m2
23:32 19.4 °C -0.6 °C 1018.5 hPa Calm   6.4 km/h 26% 0 mm 0.0 W/m2
23:42 19.3 °C -0.7 °C 1018.5 hPa NNW 9.7 km/h 11.3 km/h 26% 0 mm 0.0 W/m2
23:52 19.5 °C -1.1 °C 1018.5 hPa NNW 3.2 km/h 11.3 km/h 25% 0 mm 0.0 W/m2
23:57 19.6 °C -1 °C 1018.5 hPa Calm   9.7 km/h 25% 0 mm 0.0 W/m2
Canyon Roadhouse, Fishriver Canyon, Namibia
Compliments of Weather Underground - 2.5 mb